Map

Track Data

SID SEASON NUMBER BASIN SUBBASIN NAME ISO_TIME NATURE LAT LON WMO_WIND WMO_PRES WMO_AGENCY TRACK_TYPE DIST2LAND LANDFALL IFLAG USA_AGENCY USA_ATCF_ID USA_LAT USA_LON USA_RECORD USA_STATUS USA_WIND USA_PRES USA_SSHS USA_R34_NE USA_R34_SE USA_R34_SW USA_R34_NW USA_R50_NE USA_R50_SE USA_R50_SW USA_R50_NW USA_R64_NE USA_R64_SE USA_R64_SW USA_R64_NW USA_POCI USA_ROCI USA_RMW USA_EYE TOKYO_LAT TOKYO_LON TOKYO_GRADE TOKYO_WIND TOKYO_PRES TOKYO_R50_DIR TOKYO_R50_LONG TOKYO_R50_SHORT TOKYO_R30_DIR TOKYO_R30_LONG TOKYO_R30_SHORT TOKYO_LAND CMA_LAT CMA_LON CMA_CAT CMA_WIND CMA_PRES HKO_LAT HKO_LON HKO_CAT HKO_WIND HKO_PRES NEWDELHI_LAT NEWDELHI_LON NEWDELHI_GRADE NEWDELHI_WIND NEWDELHI_PRES NEWDELHI_CI NEWDELHI_DP NEWDELHI_POCI REUNION_LAT REUNION_LON REUNION_TYPE REUNION_WIND REUNION_PRES REUNION_TNUM REUNION_CI REUNION_RMW REUNION_R34_NE REUNION_R34_SE REUNION_R34_SW REUNION_R34_NW REUNION_R50_NE REUNION_R50_SE REUNION_R50_SW REUNION_R50_NW REUNION_R64_NE REUNION_R64_SE REUNION_R64_SW REUNION_R64_NW BOM_LAT BOM_LON BOM_TYPE BOM_WIND BOM_PRES BOM_TNUM BOM_CI BOM_RMW BOM_R34_NE BOM_R34_SE BOM_R34_SW BOM_R34_NW BOM_R50_NE BOM_R50_SE BOM_R50_SW BOM_R50_NW BOM_R64_NE BOM_R64_SE BOM_R64_SW BOM_R64_NW BOM_ROCI BOM_POCI BOM_EYE BOM_POS_METHOD BOM_PRES_METHOD NADI_LAT NADI_LON NADI_CAT NADI_WIND NADI_PRES WELLINGTON_LAT WELLINGTON_LON WELLINGTON_WIND WELLINGTON_PRES DS824_LAT DS824_LON DS824_STAGE DS824_WIND DS824_PRES TD9636_LAT TD9636_LON TD9636_STAGE TD9636_WIND TD9636_PRES TD9635_LAT TD9635_LON TD9635_WIND TD9635_PRES TD9635_ROCI NEUMANN_LAT NEUMANN_LON NEUMANN_CLASS NEUMANN_WIND NEUMANN_PRES MLC_LAT MLC_LON MLC_CLASS MLC_WIND MLC_PRES USA_GUST BOM_GUST BOM_GUST_PER REUNION_GUST REUNION_GUST_PER USA_SEAHGT USA_SEARAD_NE USA_SEARAD_SE USA_SEARAD_SW USA_SEARAD_NW STORM_SPEED STORM_DIR
1885156N12071 1885 23 NI AS NOT_NAMED 1885-06-05 00:00:00 TS 12.2000 70.7000 main 450 450 _________O____ -1 12.2000 70.7000 TC 30 0 0
1885156N12071 1885 23 NI AS NOT_NAMED 1885-06-05 03:00:00 TS 12.2000 70.7000 main 450 450 _________PO___ -1 12.2000 70.7000 TC 30 12.2000 70.7000 1 0 0
1885156N12071 1885 23 NI AS NOT_NAMED 1885-06-05 06:00:00 TS 12.2063 70.7012 main 450 450 _________OP___ -1 12.2000 70.7000 TC 30 12.2156 70.7031 1 0 0
1885156N12071 1885 23 NI AS NOT_NAMED 1885-06-05 09:00:00 TS 12.2107 70.7021 main 450 450 _________PP___ -1 12.2000 70.7000 TC 30 12.2250 70.7050 1 0 0
1885156N12071 1885 23 NI AS NOT_NAMED 1885-06-05 12:00:00 TS 12.2109 70.7022 main 450 450 _________OP___ -1 12.2000 70.7000 TC 30 12.2219 70.7044 1 0 0
1885156N12071 1885 23 NI AS NOT_NAMED 1885-06-05 15:00:00 TS 12.2000 70.7000 main 450 450 _________PO___ -1 12.2000 70.7000 TC 30 12.2000 70.7000 1 0 218
1885156N12071 1885 23 NI AS NOT_NAMED 1885-06-05 18:00:00 TS 12.1797 70.6960 main 450 450 _________OP___ -1 12.2000 70.7000 TC 30 12.1594 70.6919 1 1 200
1885156N12071 1885 23 NI AS NOT_NAMED 1885-06-05 21:00:00 TS 12.1475 70.6888 main 452 450 _________PP___ -1 12.1700 70.6925 TC 30 12.1250 70.6851 1 0 0
1885156N12071 1885 23 NI AS NOT_NAMED 1885-06-06 00:00:00 TS 12.1641 70.6928 main 450 448 _________OP___ -1 12.2000 70.7000 TC 30 12.1281 70.6857 1 1 18
1885156N12071 1885 23 NI AS NOT_NAMED 1885-06-06 03:00:00 TS 12.2775 70.7213 main 448 432 _________PO___ -1 12.3550 70.7425 TC 30 12.2000 70.7000 1 3 13
1885156N12071 1885 23 NI AS NOT_NAMED 1885-06-06 06:00:00 TS 12.4891 70.7738 main 432 427 _________OP___ -1 12.6000 70.8000 TC 30 12.3781 70.7477 1 5 13
1885156N12071 1885 23 NI AS NOT_NAMED 1885-06-06 09:00:00 TS 12.7588 70.8324 main 421 400 _________PP___ -1 12.8925 70.8575 TC 30 12.6250 70.8073 1 6 10
1885156N12071 1885 23 NI AS NOT_NAMED 1885-06-06 12:00:00 TS 13.0547 70.8816 main 393 381 _________OP___ -1 13.2000 70.9000 TC 30 12.9094 70.8633 1 6 7
1885156N12071 1885 23 NI AS NOT_NAMED 1885-06-06 15:00:00 TS 13.3287 70.9075 main 381 364 _________PO___ -1 13.4575 70.9150 TC 38 13.2000 70.9000 1 5 0
1885156N12071 1885 23 NI AS NOT_NAMED 1885-06-06 18:00:00 TS 13.5872 70.9004 main 364 354 _________OP___ -1 13.7000 70.9000 TC 47 13.4744 70.9007 1 5 357
1885156N12071 1885 23 NI AS NOT_NAMED 1885-06-06 21:00:00 TS 13.8587 70.8688 main 349 345 _________PP___ -1 13.9725 70.8575 TC 55 13.7450 70.8801 1 5 351
1885156N12071 1885 23 NI AS NOT_NAMED 1885-06-07 00:00:00 TS 14.0966 70.8222 main 352 343 _________OP___ -1 14.2000 70.8000 TC 64 13.9931 70.8445 1 4 348
1885156N12071 1885 23 NI AS NOT_NAMED 1885-06-07 03:00:00 TS 14.2612 70.7750 main 343 343 _________PO___ -1 14.3225 70.7500 TC 64 14.2000 70.8000 4 3 343
1885156N12071 1885 23 NI AS NOT_NAMED 1885-06-07 06:00:00 TS 14.3715 70.7347 main 349 344 _________OP___ -1 14.4000 70.7000 TC 64 14.3431 70.7693 4 2 338
1885156N12071 1885 23 NI AS NOT_NAMED 1885-06-07 09:00:00 TS 14.4725 70.6974 main 344 344 _________PP___ -1 14.5000 70.6650 TC 64 14.4449 70.7299 4 2 333
1885156N12071 1885 23 NI AS NOT_NAMED 1885-06-07 12:00:00 TS 14.5622 70.6378 main 351 351 _________OP___ -1 14.6000 70.6000 TC 64 14.5243 70.6756 4 2 318
1885156N12071 1885 23 NI AS NOT_NAMED 1885-06-07 15:00:00 TS 14.6500 70.5288 main 357 357 _________PO___ -1 14.7000 70.4575 TC 64 14.6000 70.6000 4 3 308
1885156N12071 1885 23 NI AS NOT_NAMED 1885-06-07 18:00:00 TS 14.7439 70.4003 main 367 362 _________OP___ -1 14.8000 70.3000 TC 64 14.6878 70.5006 4 3 309
1885156N12071 1885 23 NI AS NOT_NAMED 1885-06-07 21:00:00 TS 14.8350 70.2899 main 372 367 _________PP___ -1 14.8925 70.2000 TC 64 14.7775 70.3799 4 3 312
1885156N12071 1885 23 NI AS NOT_NAMED 1885-06-08 00:00:00 TS 14.9392 70.1721 main 377 371 _________OP___ -1 15.0000 70.1000 TC 64 14.8784 70.2443 4 3 312
1885156N12071 1885 23 NI AS NOT_NAMED 1885-06-08 03:00:00 TS 15.0675 70.0287 main 386 386 _________PO___ -1 15.1350 69.9575 TC 64 15.0000 70.1000 4 4 315
1885156N12071 1885 23 NI AS NOT_NAMED 1885-06-08 06:00:00 TS 15.2226 69.8806 main 391 391 _________OP___ -1 15.3000 69.8000 TC 64 15.1453 69.9612 4 4 319
1885156N12071 1885 23 NI AS NOT_NAMED 1885-06-08 09:00:00 TS 15.3950 69.7362 main 404 400 _________PP___ -1 15.4775 69.6574 TC 64 15.3125 69.8149 4 5 322
1885156N12071 1885 23 NI AS NOT_NAMED 1885-06-08 12:00:00 TS 15.5992 69.5806 main 408 408 _________OP___ -1 15.7000 69.5000 TC 64 15.4984 69.6611 4 6 325
1885156N12071 1885 23 NI AS NOT_NAMED 1885-06-08 15:00:00 TS 15.8538 69.4001 main 421 421 _________PO___ -1 16.0075 69.3001 TC 64 15.7000 69.5000 4 6 325
1885156N12071 1885 23 NI AS NOT_NAMED 1885-06-08 18:00:00 TS 16.1236 69.2020 main 439 438 _________OP___ -1 16.3000 69.1000 TC 64 15.9473 69.3041 4 6 323
1885156N12071 1885 23 NI AS NOT_NAMED 1885-06-08 21:00:00 TS 16.3488 69.0127 main 459 456 _________PP___ -1 16.4950 68.9200 TC 64 16.2026 69.1054 4 5 321
1885156N12071 1885 23 NI AS NOT_NAMED 1885-06-09 00:00:00 TS 16.5158 68.8645 main 463 463 _________OP___ -1 16.6000 68.8000 TC 64 16.4317 68.9290 4 3 321
1885156N12071 1885 23 NI AS NOT_NAMED 1885-06-09 03:00:00 TS 16.6112 68.7887 main 470 470 _________PO___ -1 16.6225 68.7775 TC 64 16.6000 68.8000 4 1 322
1885156N12071 1885 23 NI AS NOT_NAMED 1885-06-09 06:00:00 TS 16.6323 68.7747 main 470 470 _________OP___ -1 16.6000 68.8000 TC 64 16.6646 68.7495 4 0 0
1885156N12071 1885 23 NI AS NOT_NAMED 1885-06-09 09:00:00 TS 16.6337 68.7736 main 470 470 _________PP___ -1 16.6000 68.8000 TC 64 16.6674 68.7472 4 0 0
1885156N12071 1885 23 NI AS NOT_NAMED 1885-06-09 12:00:00 TS 16.6183 68.7857 main 470 470 _________OP___ -1 16.6000 68.8000 TC 64 16.6365 68.7714 4 0 148
1885156N12071 1885 23 NI AS NOT_NAMED 1885-06-09 15:00:00 TS 16.6000 68.8000 main 470 470 _________PO___ -1 16.6000 68.8000 TC 64 16.6000 68.8000 4 1 143
1885156N12071 1885 23 NI AS NOT_NAMED 1885-06-09 18:00:00 TS 16.5735 68.8282 main 470 460 _________OP___ -1 16.6000 68.8000 TC 64 16.5470 68.8565 4 1 134
1885156N12071 1885 23 NI AS NOT_NAMED 1885-06-09 21:00:00 TS 16.5323 68.8708 main 463 463 _________PP___ -1 16.5625 68.8374 TC 64 16.5021 68.9042 4 0 0
1885156N12071 1885 23 NI AS NOT_NAMED 1885-06-10 00:00:00 TS 16.5531 68.8499 main 470 470 _________OP___ -1 16.6000 68.8000 TC 64 16.5062 68.8999 4 2 317
1885156N12071 1885 23 NI AS NOT_NAMED 1885-06-10 03:00:00 TS 16.6950 68.7087 main 476 476 _________PO___ -1 16.7899 68.6173 TC 64 16.6000 68.8000 4 6 317
1885156N12071 1885 23 NI AS NOT_NAMED 1885-06-10 06:00:00 TS 16.9719 68.4377 main 484 474 _________OP___ -1 17.1000 68.3000 TC 64 16.8437 68.5754 4 9 316
1885156N12071 1885 23 NI AS NOT_NAMED 1885-06-10 09:00:00 TS 17.3338 68.0654 main 474 461 _________PP___ -1 17.4926 67.8802 TC 64 17.1749 68.2506 4 11 314
1885156N12071 1885 23 NI AS NOT_NAMED 1885-06-10 12:00:00 TS 17.7218 67.6252 main 467 456 _________OP___ -1 17.9000 67.4000 TC 64 17.5436 67.8504 4 11 311
1885156N12071 1885 23 NI AS NOT_NAMED 1885-06-10 15:00:00 TS 18.0649 67.1824 main 459 459 _________PO___ -1 18.2298 66.9648 TC 64 17.9000 67.4000 4 11 306
1885156N12071 1885 23 NI AS NOT_NAMED 1885-06-10 18:00:00 TS 18.3503 66.7035 main 473 473 _________OP___ -1 18.5000 66.5000 TC 64 18.2007 66.9071 4 11 299
1885156N12071 1885 23 NI AS NOT_NAMED 1885-06-10 21:00:00 TS 18.6031 66.1492 main 503 503 _________PP___ -1 18.7303 65.9201 TC 64 18.4760 66.3783 4 11 294
1885156N12071 1885 23 NI AS NOT_NAMED 1885-06-11 00:00:00 TS 18.8066 65.6301 main 520 519 _________OP___ -1 18.9000 65.4000 TC 64 18.7132 65.8603 4 9 293
1885156N12071 1885 23 NI AS NOT_NAMED 1885-06-11 03:00:00 TS 18.9611 65.2561 main 525 525 _________PO___ -1 19.0222 65.1123 TC 64 18.9000 65.4000 4 7 293
1885156N12071 1885 23 NI AS NOT_NAMED 1885-06-11 06:00:00 TS 19.0643 64.9818 main 540 540 _________OP___ -1 19.1000 64.9000 TC 64 19.0286 65.0636 4 6 288
1885156N12071 1885 23 NI AS NOT_NAMED 1885-06-11 09:00:00 TS 19.1332 64.6982 main 564 564 _________PP___ -1 19.1575 64.6075 TC 64 19.1090 64.7890 4 5 282
1885156N12071 1885 23 NI AS NOT_NAMED 1885-06-11 12:00:00 TS 19.1800 64.4225 main 582 566 _________OP___ -1 19.2000 64.3000 TC 64 19.1600 64.5451 4 5 280
1885156N12071 1885 23 NI AS NOT_NAMED 1885-06-11 15:00:00 TS 19.2250 64.1500 main 566 533 _________PO___ -1 19.2500 64.0000 TC 56 19.2000 64.3000 4 5 280
1885156N12071 1885 23 NI AS NOT_NAMED 1885-06-11 18:00:00 TS 19.2723 63.8656 main 533 506 _________OP___ -1 19.3000 63.7000 TC 49 19.2446 64.0312 4 5 279
1885156N12071 1885 23 NI AS NOT_NAMED 1885-06-11 21:00:00 TS 19.3133 63.5872 main 506 473 _________PP___ -1 19.3423 63.4224 TC 41 19.2844 63.7519 4 6 279
1885156N12071 1885 23 NI AS NOT_NAMED 1885-06-12 00:00:00 TS 19.3660 63.2734 main 473 436 _________OP___ -1 19.4000 63.1000 TC 34 19.3320 63.4467 4 7 281
1885156N12071 1885 23 NI AS NOT_NAMED 1885-06-12 03:00:00 TS 19.4425 62.8862 main 436 395 _________PO___ -1 19.4850 62.6725 TC 33 19.4000 63.1000 2 8 283
1885156N12071 1885 23 NI AS NOT_NAMED 1885-06-12 06:00:00 TS 19.5476 62.4506 main 395 339 _________OP___ -1 19.6000 62.2000 TC 32 19.4953 62.7012 2 9 286
1885156N12071 1885 23 NI AS NOT_NAMED 1885-06-12 09:00:00 TS 19.6774 62.0086 main 339 298 _________PP___ -1 19.7423 61.7575 TC 31 19.6124 62.2598 2 9 288
1885156N12071 1885 23 NI AS NOT_NAMED 1885-06-12 12:00:00 TS 19.8242 61.5443 main 290 244 _________OP___ -1 19.9000 61.3000 TC 30 19.7483 61.7885 2 9 288
1885156N12071 1885 23 NI AS NOT_NAMED 1885-06-12 15:00:00 TS 19.9712 61.0537 main 244 198 _________PO___ -1 20.0424 60.8073 TC 30 19.9000 61.3000 1 9 288
1885156N12071 1885 23 NI AS NOT_NAMED 1885-06-12 18:00:00 TS 20.1226 60.5885 main 198 148 _________OP___ -1 20.2000 60.3000 TC 30 20.0646 60.8049 1 10 290
1885156N12071 1885 23 NI AS NOT_NAMED 1885-06-12 21:00:00 TS 20.2992 60.1027 main 148 106 _________PP___ -1 20.3903 59.7978 TC 30 20.2385 60.3060 1 10 292
1885156N12071 1885 23 NI AS NOT_NAMED 1885-06-13 00:00:00 TS 20.4788 59.6360 main 96 63 _________OP___ -1 20.6000 59.3000 TC 30 20.4182 59.8041 1 8 292
1885156N12071 1885 23 NI AS NOT_NAMED 1885-06-13 03:00:00 NR 20.6000 59.3000 main 63 __________O___ -1 TC 20.6000 59.3000 1 7 291

About IBTrACS Database

This database is a web-friendly format of International Best Track Archive for Climate Stewardship (IBTrACS), a global best track data archive curated by NOAA dating back to 1842.

Updated: 2021-12-03